createdAt,value
2018-12-21T00:01:00.000Z,99383
2018-12-21T00:06:00.000Z,99404
2018-12-21T00:11:00.000Z,99408
2018-12-21T00:16:00.000Z,99411
2018-12-21T00:21:00.000Z,99404
2018-12-21T00:26:00.000Z,99378
2018-12-21T00:31:00.000Z,99376
2018-12-21T00:36:00.000Z,99391
2018-12-21T00:41:00.000Z,99383
2018-12-21T00:46:00.000Z,99365
2018-12-21T00:51:00.000Z,99390
2018-12-21T00:56:00.000Z,99399
2018-12-21T01:01:00.000Z,99400
2018-12-21T01:06:00.000Z,99389
2018-12-21T01:11:00.000Z,99391
2018-12-21T01:16:00.000Z,99396
2018-12-21T01:21:00.000Z,99396
2018-12-21T01:26:00.000Z,99413
2018-12-21T01:31:00.000Z,99408
2018-12-21T01:36:00.000Z,99407
2018-12-21T01:41:00.000Z,99393
2018-12-21T01:46:00.000Z,99397
2018-12-21T01:51:00.000Z,99389
2018-12-21T01:56:00.000Z,99373
2018-12-21T02:01:00.000Z,99376
2018-12-21T02:06:00.000Z,99384
2018-12-21T02:11:00.000Z,99379
2018-12-21T02:16:00.000Z,99375
2018-12-21T02:21:00.000Z,99353
2018-12-21T02:26:00.000Z,99333
2018-12-21T02:31:00.000Z,99361
2018-12-21T02:36:00.000Z,99355
2018-12-21T02:41:00.000Z,99349
2018-12-21T02:46:00.000Z,99353
2018-12-21T02:52:00.000Z,99351
2018-12-21T02:57:00.000Z,99338
2018-12-21T03:02:00.000Z,99334
2018-12-21T03:07:00.000Z,99344
2018-12-21T03:12:00.000Z,99333
2018-12-21T03:17:00.000Z,99330
2018-12-21T03:22:00.000Z,99330
2018-12-21T03:27:00.000Z,99312
2018-12-21T03:32:00.000Z,99285
2018-12-21T03:37:00.000Z,99316
2018-12-21T03:42:00.000Z,99316
2018-12-21T03:47:00.000Z,99299
2018-12-21T03:52:00.000Z,99308
2018-12-21T03:57:00.000Z,99286
2018-12-21T04:02:00.000Z,99284
2018-12-21T04:07:00.000Z,99310
2018-12-21T04:12:00.000Z,99328
2018-12-21T04:17:00.000Z,99333
2018-12-21T04:22:00.000Z,99322
2018-12-21T04:27:00.000Z,99333
2018-12-21T04:32:00.000Z,99335
2018-12-21T04:37:00.000Z,99320
2018-12-21T04:42:00.000Z,99318
2018-12-21T04:47:00.000Z,99312
2018-12-21T04:52:00.000Z,99305
2018-12-21T04:57:00.000Z,99294
2018-12-21T05:02:00.000Z,99305
2018-12-21T05:07:00.000Z,99309
2018-12-21T05:12:00.000Z,99323
2018-12-21T05:17:00.000Z,99315
2018-12-21T05:22:00.000Z,99322
2018-12-21T05:27:00.000Z,99323
2018-12-21T05:32:00.000Z,99302
2018-12-21T05:37:00.000Z,99310
2018-12-21T05:42:00.000Z,99331
2018-12-21T05:47:00.000Z,99305
2018-12-21T05:52:00.000Z,99273
2018-12-21T05:58:00.000Z,99290
2018-12-21T06:03:00.000Z,99300
2018-12-21T06:08:00.000Z,99301
2018-12-21T06:13:00.000Z,99274
2018-12-21T06:18:00.000Z,99280
2018-12-21T06:23:00.000Z,99276
2018-12-21T06:28:00.000Z,99272
2018-12-21T06:33:00.000Z,99257
2018-12-21T06:38:00.000Z,99280
2018-12-21T06:43:00.000Z,99280
2018-12-21T06:48:00.000Z,99257
2018-12-21T06:53:00.000Z,99263
2018-12-21T06:58:00.000Z,99253
2018-12-21T07:03:00.000Z,99269
2018-12-21T07:08:00.000Z,99265
2018-12-21T07:13:00.000Z,99256
2018-12-21T07:18:00.000Z,99246
2018-12-21T07:23:00.000Z,99252
2018-12-21T07:28:00.000Z,99247
2018-12-21T07:33:00.000Z,99247
2018-12-21T07:38:00.000Z,99227
2018-12-21T07:43:00.000Z,99221
2018-12-21T07:48:00.000Z,99221
2018-12-21T07:53:00.000Z,99229
2018-12-21T07:58:00.000Z,99200
2018-12-21T08:03:00.000Z,99212
2018-12-21T08:08:00.000Z,99203
2018-12-21T08:13:00.000Z,99202
2018-12-21T08:18:00.000Z,99197
2018-12-21T08:23:00.000Z,99199
2018-12-21T08:28:00.000Z,99180
2018-12-21T08:33:00.000Z,99177
2018-12-21T08:38:00.000Z,99173
2018-12-21T08:43:00.000Z,99173
2018-12-21T08:48:00.000Z,99173
2018-12-21T08:53:00.000Z,99176
2018-12-21T08:58:00.000Z,99169
2018-12-21T09:03:00.000Z,99161
2018-12-21T09:08:00.000Z,99169
2018-12-21T09:13:00.000Z,99153
2018-12-21T09:18:00.000Z,99148
2018-12-21T09:23:00.000Z,99143
2018-12-21T09:29:00.000Z,99136
2018-12-21T09:34:00.000Z,99126
2018-12-21T09:39:00.000Z,99114
2018-12-21T09:44:00.000Z,99097
2018-12-21T09:49:00.000Z,99101
2018-12-21T09:54:00.000Z,99084
2018-12-21T09:59:00.000Z,99098
2018-12-21T10:04:00.000Z,99082
2018-12-21T10:09:00.000Z,99079
2018-12-21T10:14:00.000Z,99066
2018-12-21T10:19:00.000Z,99063
2018-12-21T10:24:00.000Z,99046
2018-12-21T10:29:00.000Z,99041
2018-12-21T10:34:00.000Z,99011
2018-12-21T10:39:00.000Z,98998
2018-12-21T10:44:00.000Z,98993
2018-12-21T10:49:00.000Z,98984
2018-12-21T10:54:00.000Z,98990
2018-12-21T10:59:00.000Z,98988
2018-12-21T11:04:00.000Z,98977
2018-12-21T11:09:00.000Z,98971
2018-12-21T11:14:00.000Z,98954
2018-12-21T11:19:00.000Z,98945
2018-12-21T11:24:00.000Z,98926
2018-12-21T11:29:00.000Z,98914
2018-12-21T11:34:00.000Z,98913
2018-12-21T11:39:00.000Z,98890
2018-12-21T11:44:00.000Z,98885
2018-12-21T11:49:00.000Z,98871
2018-12-21T11:54:00.000Z,98870
2018-12-21T11:59:00.000Z,98860
2018-12-21T12:04:00.000Z,98849
2018-12-21T12:09:00.000Z,98854
2018-12-21T12:14:00.000Z,98852
2018-12-21T12:19:00.000Z,98842
2018-12-21T12:24:00.000Z,98818
2018-12-21T12:29:00.000Z,98813
2018-12-21T12:34:00.000Z,98789
2018-12-21T12:39:00.000Z,98775
2018-12-21T12:44:00.000Z,98774
2018-12-21T12:49:00.000Z,98759
2018-12-21T12:54:00.000Z,98760
2018-12-21T13:00:00.000Z,98743
2018-12-21T13:05:00.000Z,98744
2018-12-21T13:10:00.000Z,98726
2018-12-21T13:15:00.000Z,98721
2018-12-21T13:20:00.000Z,98740
2018-12-21T13:25:00.000Z,98735
2018-12-21T13:30:00.000Z,98730
2018-12-21T13:35:00.000Z,98725
2018-12-21T13:40:00.000Z,98700
2018-12-21T13:45:00.000Z,98684
2018-12-21T13:50:00.000Z,98710
2018-12-21T13:55:00.000Z,98712
2018-12-21T14:00:00.000Z,98684
2018-12-21T14:05:00.000Z,98670
2018-12-21T14:10:00.000Z,98672
2018-12-21T14:15:00.000Z,98671
2018-12-21T14:20:00.000Z,98665
2018-12-21T14:25:00.000Z,98665
2018-12-21T14:30:00.000Z,98679
2018-12-21T14:35:00.000Z,98648
2018-12-21T14:40:00.000Z,98641
2018-12-21T14:45:00.000Z,98652
2018-12-21T14:50:00.000Z,98653
2018-12-21T14:55:00.000Z,98650
2018-12-21T15:00:00.000Z,98645
2018-12-21T15:05:00.000Z,98647
2018-12-21T15:10:00.000Z,98656
2018-12-21T15:15:00.000Z,98657
2018-12-21T15:20:00.000Z,98613
2018-12-21T15:25:00.000Z,98578
2018-12-21T15:30:00.000Z,98639
2018-12-21T15:35:00.000Z,98616
2018-12-21T15:40:00.000Z,98567
2018-12-21T15:45:00.000Z,98581
2018-12-21T15:50:00.000Z,98584
2018-12-21T15:55:00.000Z,98583
2018-12-21T16:00:00.000Z,98577
2018-12-21T16:05:00.000Z,98553
2018-12-21T16:10:00.000Z,98549
2018-12-21T16:15:00.000Z,98557
2018-12-21T16:20:00.000Z,98528
2018-12-21T16:25:00.000Z,98506
2018-12-21T16:31:00.000Z,98508
2018-12-21T16:36:00.000Z,98539
2018-12-21T16:41:00.000Z,98543
2018-12-21T16:46:00.000Z,98540
2018-12-21T16:51:00.000Z,98546
2018-12-21T16:56:00.000Z,98497
2018-12-21T17:01:00.000Z,98509
2018-12-21T17:06:00.000Z,98488
2018-12-21T17:11:00.000Z,98518
2018-12-21T17:16:00.000Z,98497
2018-12-21T17:21:00.000Z,98513
2018-12-21T17:26:00.000Z,98499
2018-12-21T17:31:00.000Z,98490
2018-12-21T17:36:00.000Z,98487
2018-12-21T17:41:00.000Z,98465
2018-12-21T17:46:00.000Z,98465
2018-12-21T17:51:00.000Z,98497
2018-12-21T17:56:00.000Z,98454
2018-12-21T18:01:00.000Z,98469
2018-12-21T18:06:00.000Z,98456
2018-12-21T18:11:00.000Z,98458
2018-12-21T18:16:00.000Z,98438
2018-12-21T18:21:00.000Z,98430
2018-12-21T18:26:00.000Z,98430
2018-12-21T18:31:00.000Z,98425
2018-12-21T18:36:00.000Z,98435
2018-12-21T18:41:00.000Z,98430
2018-12-21T18:46:00.000Z,98422
2018-12-21T18:51:00.000Z,98419
2018-12-21T18:56:00.000Z,98427
2018-12-21T19:01:00.000Z,98428
2018-12-21T19:06:00.000Z,98404
2018-12-21T19:11:00.000Z,98399
2018-12-21T19:16:00.000Z,98404
2018-12-21T19:21:00.000Z,98404
2018-12-21T19:26:00.000Z,98401
2018-12-21T19:31:00.000Z,98386
2018-12-21T19:36:00.000Z,98379
2018-12-21T19:41:00.000Z,98359
2018-12-21T19:46:00.000Z,98372
2018-12-21T19:52:00.000Z,98362
2018-12-21T19:57:00.000Z,98361
2018-12-21T20:02:00.000Z,98323
2018-12-21T20:07:00.000Z,98307
2018-12-21T20:12:00.000Z,98328
2018-12-21T20:17:00.000Z,98314
2018-12-21T20:22:00.000Z,98303
2018-12-21T20:27:00.000Z,98308
2018-12-21T20:32:00.000Z,98311
2018-12-21T20:37:00.000Z,98306
2018-12-21T20:42:00.000Z,98299
2018-12-21T20:47:00.000Z,98317
2018-12-21T20:52:00.000Z,98297
2018-12-21T20:57:00.000Z,98284
2018-12-21T21:02:00.000Z,98279
2018-12-21T21:07:00.000Z,98290
2018-12-21T21:12:00.000Z,98310
2018-12-21T21:17:00.000Z,98304
2018-12-21T21:22:00.000Z,98311
2018-12-21T21:27:00.000Z,98314
2018-12-21T21:32:00.000Z,98334
2018-12-21T21:37:00.000Z,98317
2018-12-21T21:42:00.000Z,98326
2018-12-21T21:47:00.000Z,98354
2018-12-21T21:52:00.000Z,98337
2018-12-21T21:57:00.000Z,98338
2018-12-21T22:02:00.000Z,98349
2018-12-21T22:07:00.000Z,98341
2018-12-21T22:12:00.000Z,98341
2018-12-21T22:17:00.000Z,98326
2018-12-21T22:22:00.000Z,98330
2018-12-21T22:27:00.000Z,98324
2018-12-21T22:32:00.000Z,98334
2018-12-21T22:37:00.000Z,98319
2018-12-21T22:42:00.000Z,98334
2018-12-21T22:47:00.000Z,98317
2018-12-21T22:52:00.000Z,98325
2018-12-21T22:57:00.000Z,98310
2018-12-21T23:02:00.000Z,98319
2018-12-21T23:07:00.000Z,98331
2018-12-21T23:12:00.000Z,98326
2018-12-21T23:17:00.000Z,98335
2018-12-21T23:23:00.000Z,98327
2018-12-21T23:28:00.000Z,98319
2018-12-21T23:33:00.000Z,98324
2018-12-21T23:38:00.000Z,98317
2018-12-21T23:43:00.000Z,98313
2018-12-21T23:48:00.000Z,98321
2018-12-21T23:53:00.000Z,98324
2018-12-21T23:58:00.000Z,98321
